sensor_id;sensor_type;location;lat;lon;timestamp;temperature;humidity
45343;DHT22;31077;50.872;4.352;2023-02-15T00:00:22;24.70;35.00
45343;DHT22;31077;50.872;4.352;2023-02-15T00:02:48;24.70;35.20
45343;DHT22;31077;50.872;4.352;2023-02-15T00:05:13;24.60;35.10
45343;DHT22;31077;50.872;4.352;2023-02-15T00:07:39;24.70;35.30
45343;DHT22;31077;50.872;4.352;2023-02-15T00:10:06;24.80;35.40
45343;DHT22;31077;50.872;4.352;2023-02-15T00:12:32;24.70;35.40
45343;DHT22;31077;50.872;4.352;2023-02-15T00:14:58;24.80;35.50
45343;DHT22;31077;50.872;4.352;2023-02-15T00:17:23;24.80;35.40
45343;DHT22;31077;50.872;4.352;2023-02-15T00:19:49;24.70;35.40
45343;DHT22;31077;50.872;4.352;2023-02-15T00:22:15;24.80;35.50
45343;DHT22;31077;50.872;4.352;2023-02-15T00:24:41;24.00;35.10
45343;DHT22;31077;50.872;4.352;2023-02-15T00:27:07;24.20;35.20
45343;DHT22;31077;50.872;4.352;2023-02-15T00:29:34;24.80;35.50
45343;DHT22;31077;50.872;4.352;2023-02-15T00:32:00;24.70;35.40
45343;DHT22;31077;50.872;4.352;2023-02-15T00:34:27;24.80;35.40
45343;DHT22;31077;50.872;4.352;2023-02-15T00:36:53;24.70;35.30
45343;DHT22;31077;50.872;4.352;2023-02-15T00:39:19;24.70;35.30
45343;DHT22;31077;50.872;4.352;2023-02-15T00:41:46;24.70;35.30
45343;DHT22;31077;50.872;4.352;2023-02-15T00:44:12;24.70;35.30
45343;DHT22;31077;50.872;4.352;2023-02-15T00:46:38;24.70;35.20
45343;DHT22;31077;50.872;4.352;2023-02-15T00:49:04;24.90;35.20
45343;DHT22;31077;50.872;4.352;2023-02-15T00:51:31;24.70;35.10
45343;DHT22;31077;50.872;4.352;2023-02-15T00:53:57;24.70;35.10
45343;DHT22;31077;50.872;4.352;2023-02-15T00:56:23;24.60;34.90
45343;DHT22;31077;50.872;4.352;2023-02-15T00:58:48;24.90;35.10
45343;DHT22;31077;50.872;4.352;2023-02-15T01:01:17;24.70;35.00
45343;DHT22;31077;50.872;4.352;2023-02-15T01:03:43;24.70;35.00
45343;DHT22;31077;50.872;4.352;2023-02-15T01:06:09;24.70;34.90
45343;DHT22;31077;50.872;4.352;2023-02-15T01:08:35;24.70;34.90
45343;DHT22;31077;50.872;4.352;2023-02-15T01:11:09;24.60;34.80
45343;DHT22;31077;50.872;4.352;2023-02-15T01:13:35;24.70;34.90
45343;DHT22;31077;50.872;4.352;2023-02-15T01:16:02;24.60;34.90
45343;DHT22;31077;50.872;4.352;2023-02-15T01:18:29;24.60;34.90
45343;DHT22;31077;50.872;4.352;2023-02-15T01:20:55;24.80;35.00
45343;DHT22;31077;50.872;4.352;2023-02-15T01:23:21;24.60;34.90
45343;DHT22;31077;50.872;4.352;2023-02-15T01:25:47;24.60;34.90
45343;DHT22;31077;50.872;4.352;2023-02-15T01:28:13;24.60;34.90
45343;DHT22;31077;50.872;4.352;2023-02-15T01:30:39;24.60;34.90
45343;DHT22;31077;50.872;4.352;2023-02-15T01:33:05;24.60;34.90
45343;DHT22;31077;50.872;4.352;2023-02-15T01:35:31;24.70;34.90
45343;DHT22;31077;50.872;4.352;2023-02-15T01:37:57;24.60;34.90
45343;DHT22;31077;50.872;4.352;2023-02-15T01:40:23;24.70;34.80
45343;DHT22;31077;50.872;4.352;2023-02-15T01:42:53;24.60;34.70
45343;DHT22;31077;50.872;4.352;2023-02-15T01:45:23;24.70;34.70
45343;DHT22;31077;50.872;4.352;2023-02-15T01:50:29;24.70;34.70
45343;DHT22;31077;50.872;4.352;2023-02-15T01:56:06;24.70;34.70
45343;DHT22;31077;50.872;4.352;2023-02-15T01:58:35;24.60;34.60
45343;DHT22;31077;50.872;4.352;2023-02-15T02:01:01;24.60;34.60
45343;DHT22;31077;50.872;4.352;2023-02-15T02:06:33;24.60;34.50
45343;DHT22;31077;50.872;4.352;2023-02-15T02:09:01;24.60;34.50
45343;DHT22;31077;50.872;4.352;2023-02-15T02:11:27;24.60;34.60
45343;DHT22;31077;50.872;4.352;2023-02-15T02:13:54;24.60;34.40
45343;DHT22;31077;50.872;4.352;2023-02-15T02:19:06;24.50;34.40
45343;DHT22;31077;50.872;4.352;2023-02-15T02:22:05;24.50;34.40
45343;DHT22;31077;50.872;4.352;2023-02-15T02:25:23;24.50;34.40
45343;DHT22;31077;50.872;4.352;2023-02-15T02:31:36;24.50;34.30
45343;DHT22;31077;50.872;4.352;2023-02-15T02:34:16;24.50;34.30
45343;DHT22;31077;50.872;4.352;2023-02-15T02:45:19;24.50;34.30
45343;DHT22;31077;50.872;4.352;2023-02-15T02:48:00;24.40;34.30
45343;DHT22;31077;50.872;4.352;2023-02-15T02:50:29;24.30;34.30
45343;DHT22;31077;50.872;4.352;2023-02-15T02:52:57;24.30;34.30
45343;DHT22;31077;50.872;4.352;2023-02-15T02:58:45;24.30;34.30
45343;DHT22;31077;50.872;4.352;2023-02-15T03:01:15;24.30;34.30
45343;DHT22;31077;50.872;4.352;2023-02-15T03:03:48;24.20;34.20
45343;DHT22;31077;50.872;4.352;2023-02-15T03:06:38;24.30;34.30
45343;DHT22;31077;50.872;4.352;2023-02-15T03:09:14;24.20;34.20
45343;DHT22;31077;50.872;4.352;2023-02-15T03:11:43;24.30;34.10
45343;DHT22;31077;50.872;4.352;2023-02-15T03:14:10;24.30;34.10
45343;DHT22;31077;50.872;4.352;2023-02-15T03:16:39;24.40;34.10
45343;DHT22;31077;50.872;4.352;2023-02-15T03:19:12;24.40;34.00
45343;DHT22;31077;50.872;4.352;2023-02-15T03:21:48;24.40;33.90
45343;DHT22;31077;50.872;4.352;2023-02-15T03:24:34;24.40;33.90
45343;DHT22;31077;50.872;4.352;2023-02-15T03:27:07;25.00;34.20
45343;DHT22;31077;50.872;4.352;2023-02-15T03:29:35;24.30;33.80
45343;DHT22;31077;50.872;4.352;2023-02-15T03:32:04;24.40;33.80
45343;DHT22;31077;50.872;4.352;2023-02-15T03:34:30;24.40;33.80
45343;DHT22;31077;50.872;4.352;2023-02-15T03:40:00;24.40;33.70
45343;DHT22;31077;50.872;4.352;2023-02-15T03:42:55;24.40;33.70
45343;DHT22;31077;50.872;4.352;2023-02-15T03:45:29;24.50;33.70
45343;DHT22;31077;50.872;4.352;2023-02-15T03:47:58;24.50;33.70
45343;DHT22;31077;50.872;4.352;2023-02-15T03:50:29;24.60;33.70
45343;DHT22;31077;50.872;4.352;2023-02-15T03:53:17;24.40;33.60
45343;DHT22;31077;50.872;4.352;2023-02-15T03:55:50;24.40;33.60
45343;DHT22;31077;50.872;4.352;2023-02-15T03:58:18;24.40;33.60
45343;DHT22;31077;50.872;4.352;2023-02-15T04:01:39;24.60;33.60
45343;DHT22;31077;50.872;4.352;2023-02-15T04:04:39;24.50;33.60
45343;DHT22;31077;50.872;4.352;2023-02-15T04:07:08;24.50;33.60
45343;DHT22;31077;50.872;4.352;2023-02-15T04:09:34;24.40;33.50
45343;DHT22;31077;50.872;4.352;2023-02-15T04:12:18;24.50;33.50
45343;DHT22;31077;50.872;4.352;2023-02-15T04:14:44;24.40;33.40
45343;DHT22;31077;50.872;4.352;2023-02-15T04:17:28;24.50;33.50
45343;DHT22;31077;50.872;4.352;2023-02-15T04:19:54;24.40;33.40
45343;DHT22;31077;50.872;4.352;2023-02-15T04:22:38;24.40;33.40
45343;DHT22;31077;50.872;4.352;2023-02-15T04:25:22;24.40;33.40
45343;DHT22;31077;50.872;4.352;2023-02-15T04:27:53;24.40;33.30
45343;DHT22;31077;50.872;4.352;2023-02-15T04:30:22;24.50;33.40
45343;DHT22;31077;50.872;4.352;2023-02-15T04:32:48;24.40;33.30
45343;DHT22;31077;50.872;4.352;2023-02-15T04:35:14;24.40;33.20
45343;DHT22;31077;50.872;4.352;2023-02-15T04:37:41;24.50;33.30
45343;DHT22;31077;50.872;4.352;2023-02-15T04:40:09;25.90;34.20
45343;DHT22;31077;50.872;4.352;2023-02-15T04:42:35;24.50;33.30
45343;DHT22;31077;50.872;4.352;2023-02-15T04:45:01;24.40;33.30
45343;DHT22;31077;50.872;4.352;2023-02-15T04:47:27;24.50;33.20
45343;DHT22;31077;50.872;4.352;2023-02-15T04:49:53;24.50;33.20
45343;DHT22;31077;50.872;4.352;2023-02-15T04:52:19;24.40;33.20
45343;DHT22;31077;50.872;4.352;2023-02-15T04:54:46;24.50;33.10
45343;DHT22;31077;50.872;4.352;2023-02-15T04:57:12;24.40;33.10
45343;DHT22;31077;50.872;4.352;2023-02-15T04:59:38;24.50;33.30
45343;DHT22;31077;50.872;4.352;2023-02-15T05:02:03;24.40;33.10
45343;DHT22;31077;50.872;4.352;2023-02-15T05:04:29;24.60;33.20
45343;DHT22;31077;50.872;4.352;2023-02-15T05:06:55;24.40;33.10
45343;DHT22;31077;50.872;4.352;2023-02-15T05:09:21;24.40;33.10
45343;DHT22;31077;50.872;4.352;2023-02-15T05:11:46;24.40;33.10
45343;DHT22;31077;50.872;4.352;2023-02-15T05:14:12;24.50;33.10
45343;DHT22;31077;50.872;4.352;2023-02-15T05:16:38;24.40;33.00
45343;DHT22;31077;50.872;4.352;2023-02-15T05:19:05;24.50;33.10
45343;DHT22;31077;50.872;4.352;2023-02-15T05:21:31;24.40;33.00
45343;DHT22;31077;50.872;4.352;2023-02-15T05:23:57;24.50;33.10
45343;DHT22;31077;50.872;4.352;2023-02-15T05:26:24;24.40;33.00
45343;DHT22;31077;50.872;4.352;2023-02-15T05:29:10;24.40;33.00
45343;DHT22;31077;50.872;4.352;2023-02-15T05:31:36;24.40;33.00
45343;DHT22;31077;50.872;4.352;2023-02-15T05:34:02;24.40;32.90
45343;DHT22;31077;50.872;4.352;2023-02-15T05:36:28;24.50;33.00
45343;DHT22;31077;50.872;4.352;2023-02-15T05:38:55;24.40;32.90
45343;DHT22;31077;50.872;4.352;2023-02-15T05:41:21;24.40;32.90
45343;DHT22;31077;50.872;4.352;2023-02-15T05:43:48;24.50;32.90
45343;DHT22;31077;50.872;4.352;2023-02-15T05:46:13;24.40;32.70
45343;DHT22;31077;50.872;4.352;2023-02-15T05:48:39;24.50;32.80
45343;DHT22;31077;50.872;4.352;2023-02-15T05:51:06;24.40;32.60
45343;DHT22;31077;50.872;4.352;2023-02-15T05:53:34;24.40;32.70
45343;DHT22;31077;50.872;4.352;2023-02-15T05:56:01;24.40;32.70
45343;DHT22;31077;50.872;4.352;2023-02-15T05:58:33;24.50;32.80
45343;DHT22;31077;50.872;4.352;2023-02-15T06:00:59;24.40;32.70
45343;DHT22;31077;50.872;4.352;2023-02-15T06:03:25;24.40;32.70
45343;DHT22;31077;50.872;4.352;2023-02-15T06:05:53;24.30;32.60
45343;DHT22;31077;50.872;4.352;2023-02-15T06:08:19;24.40;32.70
45343;DHT22;31077;50.872;4.352;2023-02-15T06:10:46;24.40;32.70
45343;DHT22;31077;50.872;4.352;2023-02-15T06:13:11;24.40;32.60
45343;DHT22;31077;50.872;4.352;2023-02-15T06:15:37;24.40;32.60
45343;DHT22;31077;50.872;4.352;2023-02-15T06:18:03;24.40;32.50
45343;DHT22;31077;50.872;4.352;2023-02-15T06:20:29;24.40;32.50
45343;DHT22;31077;50.872;4.352;2023-02-15T06:22:54;24.40;32.50
45343;DHT22;31077;50.872;4.352;2023-02-15T06:25:20;24.40;32.50
45343;DHT22;31077;50.872;4.352;2023-02-15T06:27:46;24.40;32.40
45343;DHT22;31077;50.872;4.352;2023-02-15T06:30:12;24.40;32.40
45343;DHT22;31077;50.872;4.352;2023-02-15T06:32:38;24.40;32.40
45343;DHT22;31077;50.872;4.352;2023-02-15T06:35:06;24.40;32.30
45343;DHT22;31077;50.872;4.352;2023-02-15T06:37:31;24.50;32.40
45343;DHT22;31077;50.872;4.352;2023-02-15T06:39:57;24.40;32.20
45343;DHT22;31077;50.872;4.352;2023-02-15T06:42:24;25.80;33.20
45343;DHT22;31077;50.872;4.352;2023-02-15T06:44:50;24.40;32.20
45343;DHT22;31077;50.872;4.352;2023-02-15T06:47:16;24.10;32.00
45343;DHT22;31077;50.872;4.352;2023-02-15T06:49:41;24.40;32.10
45343;DHT22;31077;50.872;4.352;2023-02-15T06:52:07;24.40;32.10
45343;DHT22;31077;50.872;4.352;2023-02-15T06:54:33;24.40;32.10
45343;DHT22;31077;50.872;4.352;2023-02-15T06:56:58;24.40;32.10
45343;DHT22;31077;50.872;4.352;2023-02-15T06:59:24;24.30;32.00
45343;DHT22;31077;50.872;4.352;2023-02-15T07:01:50;24.40;32.10
45343;DHT22;31077;50.872;4.352;2023-02-15T07:04:16;24.40;32.10
45343;DHT22;31077;50.872;4.352;2023-02-15T07:06:41;24.40;32.00
45343;DHT22;31077;50.872;4.352;2023-02-15T07:09:07;24.30;32.00
45343;DHT22;31077;50.872;4.352;2023-02-15T07:11:33;24.40;32.10
45343;DHT22;31077;50.872;4.352;2023-02-15T07:14:17;24.30;32.00
45343;DHT22;31077;50.872;4.352;2023-02-15T07:16:43;24.40;32.10
45343;DHT22;31077;50.872;4.352;2023-02-15T07:19:09;24.40;32.10
45343;DHT22;31077;50.872;4.352;2023-02-15T07:21:35;24.30;32.00
45343;DHT22;31077;50.872;4.352;2023-02-15T07:24:02;24.30;31.90
45343;DHT22;31077;50.872;4.352;2023-02-15T07:26:28;24.40;32.00
45343;DHT22;31077;50.872;4.352;2023-02-15T07:28:54;22.60;31.00
45343;DHT22;31077;50.872;4.352;2023-02-15T07:31:20;24.50;32.00
45343;DHT22;31077;50.872;4.352;2023-02-15T07:33:46;25.00;32.20
45343;DHT22;31077;50.872;4.352;2023-02-15T07:36:11;24.40;31.80
45343;DHT22;31077;50.872;4.352;2023-02-15T07:38:40;24.40;31.90
45343;DHT22;31077;50.872;4.352;2023-02-15T07:41:08;24.40;31.90
45343;DHT22;31077;50.872;4.352;2023-02-15T07:43:36;24.40;32.40
45343;DHT22;31077;50.872;4.352;2023-02-15T07:46:05;24.40;31.90
45343;DHT22;31077;50.872;4.352;2023-02-15T07:48:33;24.40;31.90
45343;DHT22;31077;50.872;4.352;2023-02-15T07:51:04;24.40;31.90
45343;DHT22;31077;50.872;4.352;2023-02-15T07:53:30;24.30;31.90
45343;DHT22;31077;50.872;4.352;2023-02-15T07:56:04;24.40;31.80
45343;DHT22;31077;50.872;4.352;2023-02-15T07:58:30;24.40;31.90
45343;DHT22;31077;50.872;4.352;2023-02-15T08:01:15;23.20;31.20
45343;DHT22;31077;50.872;4.352;2023-02-15T08:03:40;24.40;31.80
45343;DHT22;31077;50.872;4.352;2023-02-15T08:06:06;24.30;31.80
45343;DHT22;31077;50.872;4.352;2023-02-15T08:08:36;24.30;31.80
45343;DHT22;31077;50.872;4.352;2023-02-15T08:11:13;24.40;31.90
45343;DHT22;31077;50.872;4.352;2023-02-15T08:16:29;24.30;31.80
45343;DHT22;31077;50.872;4.352;2023-02-15T08:18:56;24.50;31.90
45343;DHT22;31077;50.872;4.352;2023-02-15T08:21:23;23.30;31.20
45343;DHT22;31077;50.872;4.352;2023-02-15T08:23:51;24.40;31.80
45343;DHT22;31077;50.872;4.352;2023-02-15T08:26:16;24.30;31.70
45343;DHT22;31077;50.872;4.352;2023-02-15T08:28:43;24.40;31.70
45343;DHT22;31077;50.872;4.352;2023-02-15T08:31:11;24.40;31.70
45343;DHT22;31077;50.872;4.352;2023-02-15T08:33:39;24.40;31.70
45343;DHT22;31077;50.872;4.352;2023-02-15T08:36:11;24.50;31.80
45343;DHT22;31077;50.872;4.352;2023-02-15T08:38:37;24.30;31.70
45343;DHT22;31077;50.872;4.352;2023-02-15T08:41:14;24.40;31.70
45343;DHT22;31077;50.872;4.352;2023-02-15T08:43:40;24.40;31.80
45343;DHT22;31077;50.872;4.352;2023-02-15T08:46:07;24.40;31.80
45343;DHT22;31077;50.872;4.352;2023-02-15T08:48:34;24.40;31.70
45343;DHT22;31077;50.872;4.352;2023-02-15T08:51:05;24.50;31.70
45343;DHT22;31077;50.872;4.352;2023-02-15T08:53:32;24.40;31.80
45343;DHT22;31077;50.872;4.352;2023-02-15T08:55:58;24.40;31.70
45343;DHT22;31077;50.872;4.352;2023-02-15T08:58:24;23.70;31.40
45343;DHT22;31077;50.872;4.352;2023-02-15T09:00:50;24.40;31.70
45343;DHT22;31077;50.872;4.352;2023-02-15T09:03:16;24.40;31.70
45343;DHT22;31077;50.872;4.352;2023-02-15T09:05:42;24.40;31.60
45343;DHT22;31077;50.872;4.352;2023-02-15T09:08:08;24.40;31.60
45343;DHT22;31077;50.872;4.352;2023-02-15T09:10:33;24.40;31.60
45343;DHT22;31077;50.872;4.352;2023-02-15T09:12:59;24.40;31.60
45343;DHT22;31077;50.872;4.352;2023-02-15T09:15:25;24.40;31.60
45343;DHT22;31077;50.872;4.352;2023-02-15T09:17:51;24.40;31.60
45343;DHT22;31077;50.872;4.352;2023-02-15T09:20:16;24.40;31.60
45343;DHT22;31077;50.872;4.352;2023-02-15T09:22:43;24.50;31.60
45343;DHT22;31077;50.872;4.352;2023-02-15T09:25:08;24.40;31.60
45343;DHT22;31077;50.872;4.352;2023-02-15T09:27:34;24.40;31.60
45343;DHT22;31077;50.872;4.352;2023-02-15T09:30:02;24.50;31.60
45343;DHT22;31077;50.872;4.352;2023-02-15T09:32:28;24.50;31.60
45343;DHT22;31077;50.872;4.352;2023-02-15T09:34:54;24.50;31.60
45343;DHT22;31077;50.872;4.352;2023-02-15T09:37:20;24.40;31.50
45343;DHT22;31077;50.872;4.352;2023-02-15T09:39:46;24.40;31.60
45343;DHT22;31077;50.872;4.352;2023-02-15T09:45:16;24.50;32.20
45343;DHT22;31077;50.872;4.352;2023-02-15T09:50:45;24.50;31.60
45343;DHT22;31077;50.872;4.352;2023-02-15T09:53:43;24.50;31.60
45343;DHT22;31077;50.872;4.352;2023-02-15T09:56:48;24.50;31.60
45343;DHT22;31077;50.872;4.352;2023-02-15T09:59:35;24.40;31.60
45343;DHT22;31077;50.872;4.352;2023-02-15T10:02:15;24.40;31.60
45343;DHT22;31077;50.872;4.352;2023-02-15T10:16:19;24.50;31.60
45343;DHT22;31077;50.872;4.352;2023-02-15T10:18:50;24.50;31.60
45343;DHT22;31077;50.872;4.352;2023-02-15T10:24:21;24.50;31.50
45343;DHT22;31077;50.872;4.352;2023-02-15T10:26:54;24.50;31.50
45343;DHT22;31077;50.872;4.352;2023-02-15T10:29:34;24.50;31.50
45343;DHT22;31077;50.872;4.352;2023-02-15T10:32:23;24.50;31.50
45343;DHT22;31077;50.872;4.352;2023-02-15T10:35:01;26.00;32.40
45343;DHT22;31077;50.872;4.352;2023-02-15T10:40:33;24.50;31.40
45343;DHT22;31077;50.872;4.352;2023-02-15T10:45:58;24.50;31.50
45343;DHT22;31077;50.872;4.352;2023-02-15T10:48:39;24.50;31.50
45343;DHT22;31077;50.872;4.352;2023-02-15T10:51:20;24.50;31.50
45343;DHT22;31077;50.872;4.352;2023-02-15T11:01:51;24.60;31.50
45343;DHT22;31077;50.872;4.352;2023-02-15T11:13:17;24.60;31.50
45343;DHT22;31077;50.872;4.352;2023-02-15T11:23:28;24.50;31.50
45343;DHT22;31077;50.872;4.352;2023-02-15T11:25:57;24.50;31.40
45343;DHT22;31077;50.872;4.352;2023-02-15T11:28:36;24.50;31.50
45343;DHT22;31077;50.872;4.352;2023-02-15T11:31:21;24.60;31.50
45343;DHT22;31077;50.872;4.352;2023-02-15T11:33:51;24.60;31.50
45343;DHT22;31077;50.872;4.352;2023-02-15T11:36:37;24.60;31.50
45343;DHT22;31077;50.872;4.352;2023-02-15T11:39:13;24.60;31.60
45343;DHT22;31077;50.872;4.352;2023-02-15T11:41:51;24.60;31.60
45343;DHT22;31077;50.872;4.352;2023-02-15T11:44:21;24.70;31.70
45343;DHT22;31077;50.872;4.352;2023-02-15T11:46:49;24.50;31.50
45343;DHT22;31077;50.872;4.352;2023-02-15T11:49:34;24.70;31.70
45343;DHT22;31077;50.872;4.352;2023-02-15T11:52:03;24.70;31.80
45343;DHT22;31077;50.872;4.352;2023-02-15T11:54:32;24.60;31.70
45343;DHT22;31077;50.872;4.352;2023-02-15T11:57:15;24.60;31.80
45343;DHT22;31077;50.872;4.352;2023-02-15T11:59:48;24.60;31.90
45343;DHT22;31077;50.872;4.352;2023-02-15T12:02:19;24.60;31.90
45343;DHT22;31077;50.872;4.352;2023-02-15T12:05:00;24.70;32.00
45343;DHT22;31077;50.872;4.352;2023-02-15T12:12:36;24.80;32.40
45343;DHT22;31077;50.872;4.352;2023-02-15T12:15:04;24.70;32.40
45343;DHT22;31077;50.872;4.352;2023-02-15T12:17:34;24.80;32.60
45343;DHT22;31077;50.872;4.352;2023-02-15T12:20:04;24.70;32.70
45343;DHT22;31077;50.872;4.352;2023-02-15T12:22:35;24.90;32.80
45343;DHT22;31077;50.872;4.352;2023-02-15T12:27:55;24.80;32.90
45343;DHT22;31077;50.872;4.352;2023-02-15T12:33:13;25.00;33.20
45343;DHT22;31077;50.872;4.352;2023-02-15T12:35:41;24.90;33.20
45343;DHT22;31077;50.872;4.352;2023-02-15T12:40:38;24.80;33.50
45343;DHT22;31077;50.872;4.352;2023-02-15T12:43:29;25.10;33.70
45343;DHT22;31077;50.872;4.352;2023-02-15T12:46:20;23.60;32.90
45343;DHT22;31077;50.872;4.352;2023-02-15T12:48:46;25.10;33.70
45343;DHT22;31077;50.872;4.352;2023-02-15T12:51:14;25.10;33.70
45343;DHT22;31077;50.872;4.352;2023-02-15T12:53:41;25.20;33.80
45343;DHT22;31077;50.872;4.352;2023-02-15T12:56:09;25.10;33.70
45343;DHT22;31077;50.872;4.352;2023-02-15T12:58:37;23.20;32.70
45343;DHT22;31077;50.872;4.352;2023-02-15T13:06:21;25.10;33.80
45343;DHT22;31077;50.872;4.352;2023-02-15T13:08:50;25.10;33.80
45343;DHT22;31077;50.872;4.352;2023-02-15T13:11:28;25.10;33.80
45343;DHT22;31077;50.872;4.352;2023-02-15T13:14:02;25.20;33.90
45343;DHT22;31077;50.872;4.352;2023-02-15T13:16:36;25.10;33.90
45343;DHT22;31077;50.872;4.352;2023-02-15T13:19:12;25.20;33.90
45343;DHT22;31077;50.872;4.352;2023-02-15T13:21:43;25.20;33.90
45343;DHT22;31077;50.872;4.352;2023-02-15T13:24:22;25.20;33.90
45343;DHT22;31077;50.872;4.352;2023-02-15T13:26:49;25.20;33.90
45343;DHT22;31077;50.872;4.352;2023-02-15T13:29:26;25.30;34.00
45343;DHT22;31077;50.872;4.352;2023-02-15T13:31:54;25.20;33.90
45343;DHT22;31077;50.872;4.352;2023-02-15T13:34:25;25.20;33.90
45343;DHT22;31077;50.872;4.352;2023-02-15T13:37:25;25.30;34.00
45343;DHT22;31077;50.872;4.352;2023-02-15T13:43:05;25.20;34.00
45343;DHT22;31077;50.872;4.352;2023-02-15T13:48:24;25.20;34.00
45343;DHT22;31077;50.872;4.352;2023-02-15T14:01:58;25.30;33.90
45343;DHT22;31077;50.872;4.352;2023-02-15T14:04:49;25.30;33.90
45343;DHT22;31077;50.872;4.352;2023-02-15T14:15:38;25.30;33.80
45343;DHT22;31077;50.872;4.352;2023-02-15T14:18:26;24.30;33.30
45343;DHT22;31077;50.872;4.352;2023-02-15T14:23:37;25.50;33.80
45343;DHT22;31077;50.872;4.352;2023-02-15T14:32:17;25.60;33.70
45343;DHT22;31077;50.872;4.352;2023-02-15T14:34:54;25.50;33.60
45343;DHT22;31077;50.872;4.352;2023-02-15T14:37:47;25.40;33.80
45343;DHT22;31077;50.872;4.352;2023-02-15T14:40:38;25.40;33.80
45343;DHT22;31077;50.872;4.352;2023-02-15T14:45:55;25.50;34.20
45343;DHT22;31077;50.872;4.352;2023-02-15T14:48:30;25.60;34.30
45343;DHT22;31077;50.872;4.352;2023-02-15T14:50:56;25.60;34.20
45343;DHT22;31077;50.872;4.352;2023-02-15T14:53:38;25.40;34.10
45343;DHT22;31077;50.872;4.352;2023-02-15T15:01:34;25.50;34.10
45343;DHT22;31077;50.872;4.352;2023-02-15T15:07:09;25.50;34.10
45343;DHT22;31077;50.872;4.352;2023-02-15T15:09:40;25.50;34.10
45343;DHT22;31077;50.872;4.352;2023-02-15T15:14:43;25.40;34.00
45343;DHT22;31077;50.872;4.352;2023-02-15T15:20:12;25.40;33.90
45343;DHT22;31077;50.872;4.352;2023-02-15T15:22:42;25.50;34.00
45343;DHT22;31077;50.872;4.352;2023-02-15T15:25:11;25.50;34.10
45343;DHT22;31077;50.872;4.352;2023-02-15T15:27:46;25.40;34.10
45343;DHT22;31077;50.872;4.352;2023-02-15T15:50:17;25.40;35.70
45343;DHT22;31077;50.872;4.352;2023-02-15T15:52:55;25.40;35.90
45343;DHT22;31077;50.872;4.352;2023-02-15T15:55:24;25.40;36.00
45343;DHT22;31077;50.872;4.352;2023-02-15T15:57:57;25.30;36.00
45343;DHT22;31077;50.872;4.352;2023-02-15T16:00:33;25.40;36.10
45343;DHT22;31077;50.872;4.352;2023-02-15T16:02:59;25.30;36.20
45343;DHT22;31077;50.872;4.352;2023-02-15T16:05:25;25.40;36.70
45343;DHT22;31077;50.872;4.352;2023-02-15T16:07:51;25.30;36.20
45343;DHT22;31077;50.872;4.352;2023-02-15T16:10:23;25.30;36.40
45343;DHT22;31077;50.872;4.352;2023-02-15T16:12:50;25.30;36.70
45343;DHT22;31077;50.872;4.352;2023-02-15T16:15:20;25.30;36.70
45343;DHT22;31077;50.872;4.352;2023-02-15T16:17:49;25.30;36.60
45343;DHT22;31077;50.872;4.352;2023-02-15T16:20:29;25.30;36.50
45343;DHT22;31077;50.872;4.352;2023-02-15T16:26:07;25.30;36.30
45343;DHT22;31077;50.872;4.352;2023-02-15T16:28:37;25.30;36.20
45343;DHT22;31077;50.872;4.352;2023-02-15T16:31:10;25.20;36.00
45343;DHT22;31077;50.872;4.352;2023-02-15T16:33:38;25.20;36.00
45343;DHT22;31077;50.872;4.352;2023-02-15T16:36:05;25.30;36.00
45343;DHT22;31077;50.872;4.352;2023-02-15T16:39:05;25.20;36.00
45343;DHT22;31077;50.872;4.352;2023-02-15T16:41:32;25.20;35.90
45343;DHT22;31077;50.872;4.352;2023-02-15T16:44:04;26.00;36.30
45343;DHT22;31077;50.872;4.352;2023-02-15T16:46:36;25.10;35.70
45343;DHT22;31077;50.872;4.352;2023-02-15T16:49:18;25.10;35.70
45343;DHT22;31077;50.872;4.352;2023-02-15T16:51:54;25.30;35.70
45343;DHT22;31077;50.872;4.352;2023-02-15T16:54:22;25.70;36.00
45343;DHT22;31077;50.872;4.352;2023-02-15T16:56:48;25.10;35.50
45343;DHT22;31077;50.872;4.352;2023-02-15T16:59:26;25.10;35.30
45343;DHT22;31077;50.872;4.352;2023-02-15T17:01:54;25.10;35.50
45343;DHT22;31077;50.872;4.352;2023-02-15T17:09:26;25.10;35.40
45343;DHT22;31077;50.872;4.352;2023-02-15T17:11:52;25.10;35.30
45343;DHT22;31077;50.872;4.352;2023-02-15T17:14:20;24.20;34.80
45343;DHT22;31077;50.872;4.352;2023-02-15T17:16:53;25.00;35.20
45343;DHT22;31077;50.872;4.352;2023-02-15T17:19:25;25.20;35.30
45343;DHT22;31077;50.872;4.352;2023-02-15T17:21:54;25.00;35.20
45343;DHT22;31077;50.872;4.352;2023-02-15T17:24:32;25.10;35.20
45343;DHT22;31077;50.872;4.352;2023-02-15T17:27:04;25.00;35.10
45343;DHT22;31077;50.872;4.352;2023-02-15T17:29:39;25.00;35.10
45343;DHT22;31077;50.872;4.352;2023-02-15T17:32:14;25.00;35.10
45343;DHT22;31077;50.872;4.352;2023-02-15T17:34:47;25.00;35.10
45343;DHT22;31077;50.872;4.352;2023-02-15T17:37:24;25.10;35.20
45343;DHT22;31077;50.872;4.352;2023-02-15T17:39:50;25.00;35.10
45343;DHT22;31077;50.872;4.352;2023-02-15T17:42:16;25.00;35.10
45343;DHT22;31077;50.872;4.352;2023-02-15T17:44:42;25.00;35.00
45343;DHT22;31077;50.872;4.352;2023-02-15T17:47:16;24.90;35.00
45343;DHT22;31077;50.872;4.352;2023-02-15T17:49:44;25.00;35.10
45343;DHT22;31077;50.872;4.352;2023-02-15T17:52:12;25.10;35.10
45343;DHT22;31077;50.872;4.352;2023-02-15T17:54:41;24.90;35.00
45343;DHT22;31077;50.872;4.352;2023-02-15T17:57:26;24.90;34.90
45343;DHT22;31077;50.872;4.352;2023-02-15T17:59:53;24.90;35.00
45343;DHT22;31077;50.872;4.352;2023-02-15T18:02:38;24.90;34.90
45343;DHT22;31077;50.872;4.352;2023-02-15T18:05:22;24.90;34.90
45343;DHT22;31077;50.872;4.352;2023-02-15T18:08:15;24.90;34.90
45343;DHT22;31077;50.872;4.352;2023-02-15T18:11:01;24.90;35.00
45343;DHT22;31077;50.872;4.352;2023-02-15T18:13:45;24.90;35.00
45343;DHT22;31077;50.872;4.352;2023-02-15T18:16:18;24.90;35.00
45343;DHT22;31077;50.872;4.352;2023-02-15T18:18:44;24.90;35.00
45343;DHT22;31077;50.872;4.352;2023-02-15T18:21:11;24.50;34.70
45343;DHT22;31077;50.872;4.352;2023-02-15T18:23:38;24.80;34.80
45343;DHT22;31077;50.872;4.352;2023-02-15T18:26:04;24.90;34.90
45343;DHT22;31077;50.872;4.352;2023-02-15T18:28:30;24.80;34.80
45343;DHT22;31077;50.872;4.352;2023-02-15T18:30:57;24.90;34.90
45343;DHT22;31077;50.872;4.352;2023-02-15T18:35:48;24.80;34.80
45343;DHT22;31077;50.872;4.352;2023-02-15T18:38:16;24.80;34.70
45343;DHT22;31077;50.872;4.352;2023-02-15T18:40:41;24.80;34.70
45343;DHT22;31077;50.872;4.352;2023-02-15T18:43:11;24.80;34.70
45343;DHT22;31077;50.872;4.352;2023-02-15T18:45:37;24.40;34.50
45343;DHT22;31077;50.872;4.352;2023-02-15T18:48:06;26.50;35.80
45343;DHT22;31077;50.872;4.352;2023-02-15T18:50:35;25.00;34.80
45343;DHT22;31077;50.872;4.352;2023-02-15T18:53:03;24.90;34.80
45343;DHT22;31077;50.872;4.352;2023-02-15T18:55:30;24.90;34.70